Hosmer, South Dakota
Current Conditions -  °F | °C
As of 4:23 PM on Tuesday 25 Nov 2014 (Local Time) from KMBG Reporting Station
Light Snow Light Snow  
Wind Chill: 25°   Ceiling: 600
Heat Index: 33°   Visibility: 0.75mi
Dew Point: 31°   Wind: 10mph
Humidity: 92%   Direction: 180°S
Pressure: 29.71"   Gusts: NA
Location:  45.58°N, 99.47°W
Report Text: KMBG 252223Z AUTO 18009KT 3/4SM -SN BR BKN006 OVC012 01/M01 A2971 RMK AO2 P0002 T00061006
Loading
Personal Weather Stations






























Interactive Weather Map New forecast layout! Learn more

10-Day Weather Forecast

Advertisements
Track Severe Weather on mobile